createdAt,value
2022-09-12T00:00:01.702Z,12.04
2022-09-12T00:01:10.651Z,12.03
2022-09-12T00:02:07.355Z,11.89
2022-09-12T00:03:04.103Z,12.08
2022-09-12T00:04:02.090Z,12.06
2022-09-12T00:04:59.182Z,12.22
2022-09-12T00:05:55.801Z,12.26
2022-09-12T00:06:52.608Z,12.32
2022-09-12T00:07:49.725Z,11.97
2022-09-12T00:08:46.627Z,12.23
2022-09-12T00:09:43.553Z,12.03
2022-09-12T00:10:41.875Z,12.01
2022-09-12T00:11:44.088Z,11.96
2022-09-12T00:12:41.204Z,11.83
2022-09-12T00:13:41.721Z,11.83
2022-09-12T00:14:38.743Z,11.77
2022-09-12T00:15:43.879Z,11.69
2022-09-12T00:16:41.184Z,11.68
2022-09-12T00:17:38.967Z,11.55
2022-09-12T00:18:35.564Z,11.49
2022-09-12T00:19:32.176Z,11.71
2022-09-12T00:20:28.780Z,11.71
2022-09-12T00:21:25.461Z,11.61
2022-09-12T00:22:22.115Z,11.59
2022-09-12T00:23:18.776Z,11.66
2022-09-12T00:24:15.404Z,11.73
2022-09-12T00:25:12.228Z,11.65
2022-09-12T00:26:09.613Z,11.61
2022-09-12T00:27:06.347Z,11.77
2022-09-12T00:28:02.996Z,11.64
2022-09-12T00:28:59.638Z,11.55
2022-09-12T00:29:56.354Z,11.59
2022-09-12T00:30:53.005Z,11.61
2022-09-12T00:31:49.664Z,11.58
2022-09-12T00:32:46.334Z,11.47
2022-09-12T00:33:43.582Z,11.64
2022-09-12T00:34:40.128Z,11.75
2022-09-12T00:35:50.291Z,11.87
2022-09-12T00:36:46.987Z,11.87
2022-09-12T00:37:43.588Z,11.88
2022-09-12T00:38:42.130Z,12.21
2022-09-12T00:39:39.170Z,12.00
2022-09-12T00:40:35.821Z,11.99
2022-09-12T00:41:38.714Z,12.14
2022-09-12T00:42:35.282Z,11.91
2022-09-12T00:43:39.806Z,12.12
2022-09-12T00:44:39.395Z,12.08
2022-09-12T00:45:36.110Z,11.93
2022-09-12T00:46:44.735Z,11.79
2022-09-12T00:47:42.156Z,11.66
2022-09-12T00:48:44.354Z,11.53
2022-09-12T00:49:52.069Z,11.68
2022-09-12T00:50:49.896Z,11.44
2022-09-12T00:51:56.035Z,11.51
2022-09-12T00:52:57.119Z,11.38
2022-09-12T00:53:55.606Z,11.36
2022-09-12T00:55:07.473Z,11.40
2022-09-12T00:56:04.172Z,11.38
2022-09-12T00:57:05.794Z,11.50
2022-09-12T00:58:09.197Z,11.65
2022-09-12T00:59:22.546Z,11.72
2022-09-12T01:00:21.396Z,11.90
2022-09-12T01:01:19.198Z,11.77
2022-09-12T01:02:16.290Z,11.78
2022-09-12T01:03:16.017Z,11.77
2022-09-12T01:04:13.592Z,11.77
2022-09-12T01:05:11.210Z,11.74
2022-09-12T01:06:11.968Z,11.88
2022-09-12T01:07:09.115Z,11.90
2022-09-12T01:08:06.348Z,11.98
2022-09-12T01:09:05.018Z,12.00
2022-09-12T01:10:01.926Z,11.89
2022-09-12T01:10:58.726Z,12.06
2022-09-12T01:11:55.932Z,12.12
2022-09-12T01:12:52.636Z,12.17
2022-09-12T01:13:50.787Z,12.11
2022-09-12T01:14:47.483Z,12.09
2022-09-12T01:15:44.146Z,12.02
2022-09-12T01:16:41.153Z,11.99
2022-09-12T01:17:48.891Z,12.10
2022-09-12T01:18:51.870Z,12.07
2022-09-12T01:20:31.881Z,12.18
2022-09-12T01:22:08.518Z,12.35
2022-09-12T01:23:26.096Z,12.31
2022-09-12T01:24:35.357Z,12.27
2022-09-12T01:26:13.561Z,11.95
2022-09-12T01:27:25.429Z,11.92
2022-09-12T01:28:49.163Z,11.81
2022-09-12T01:30:05.988Z,11.73
2022-09-12T01:31:09.045Z,11.56
2022-09-12T01:32:49.401Z,11.38
2022-09-12T01:34:15.363Z,11.43
2022-09-12T01:35:25.750Z,11.24
2022-09-12T01:36:49.559Z,11.51
2022-09-12T01:37:45.977Z,11.48
2022-09-12T01:38:48.263Z,11.46
2022-09-12T01:40:03.596Z,11.36
2022-09-12T01:41:31.144Z,11.54
2022-09-12T01:42:38.623Z,11.57
2022-09-12T01:43:53.522Z,11.27
2022-09-12T01:45:05.288Z,11.27
2022-09-12T01:46:35.219Z,11.31
2022-09-12T01:47:41.078Z,11.22
2022-09-12T01:48:58.082Z,11.20
2022-09-12T01:50:07.039Z,11.46
2022-09-12T01:51:32.363Z,11.67
2022-09-12T01:52:28.927Z,11.66
2022-09-12T01:53:32.367Z,11.82
2022-09-12T01:54:40.026Z,11.94
2022-09-12T01:55:46.484Z,11.90
2022-09-12T01:56:46.309Z,11.74
2022-09-12T01:57:51.333Z,11.81
2022-09-12T01:58:54.608Z,11.77
2022-09-12T01:59:57.699Z,11.70
2022-09-12T02:01:10.213Z,11.95
2022-09-12T02:02:17.039Z,11.79
2022-09-12T02:03:39.670Z,11.68
2022-09-12T02:04:44.861Z,11.58
2022-09-12T02:05:47.054Z,11.59
2022-09-12T02:06:56.737Z,11.54
2022-09-12T02:08:26.209Z,11.56
2022-09-12T02:09:39.838Z,11.64
2022-09-12T02:11:00.504Z,11.65
2022-09-12T02:12:00.870Z,11.82
2022-09-12T02:13:03.627Z,11.73
2022-09-12T02:14:09.268Z,11.79
2022-09-12T02:15:09.428Z,11.84
2022-09-12T02:16:12.745Z,11.77
2022-09-12T02:17:13.533Z,11.89
2022-09-12T02:18:14.638Z,11.78
2022-09-12T02:19:16.376Z,11.76
2022-09-12T02:20:47.410Z,11.72
2022-09-12T02:21:51.086Z,11.81
2022-09-12T02:22:50.282Z,11.77
2022-09-12T02:23:56.047Z,11.69
2022-09-12T02:24:59.630Z,11.90
2022-09-12T02:26:05.971Z,12.02
2022-09-12T02:27:11.628Z,11.85
2022-09-12T02:28:15.425Z,11.86
2022-09-12T02:29:12.117Z,12.00
2022-09-12T02:30:10.059Z,12.12
2022-09-12T02:31:40.264Z,12.22
2022-09-12T02:32:38.520Z,12.03
2022-09-12T02:34:13.555Z,11.69
2022-09-12T02:35:34.862Z,11.68
2022-09-12T02:37:00.903Z,11.88
2022-09-12T02:38:14.765Z,11.81
2022-09-12T02:39:11.414Z,11.45
2022-09-12T02:40:09.882Z,11.73
2022-09-12T02:41:07.373Z,11.93
2022-09-12T02:42:04.700Z,11.85
2022-09-12T02:43:03.110Z,11.77
2022-09-12T02:43:59.819Z,11.86
2022-09-12T02:44:57.392Z,11.94
2022-09-12T02:45:54.220Z,11.94
2022-09-12T02:46:55.686Z,12.12
2022-09-12T02:47:58.732Z,12.14
2022-09-12T02:48:56.595Z,12.08
2022-09-12T02:49:54.169Z,12.01
2022-09-12T02:50:51.339Z,12.02
2022-09-12T02:51:48.875Z,12.04
2022-09-12T02:52:46.639Z,12.05
2022-09-12T02:53:43.320Z,11.99
2022-09-12T02:54:40.563Z,11.99
2022-09-12T02:55:40.181Z,12.03
2022-09-12T02:56:41.915Z,11.96
2022-09-12T02:57:38.645Z,12.03
2022-09-12T02:58:35.470Z,11.67
2022-09-12T02:59:32.159Z,11.60
2022-09-12T03:00:34.967Z,11.47
2022-09-12T03:01:50.371Z,11.38
2022-09-12T03:03:05.367Z,11.32
2022-09-12T03:04:17.671Z,11.26
2022-09-12T03:05:24.960Z,11.20
2022-09-12T03:06:35.420Z,11.20
2022-09-12T03:07:39.807Z,11.07
2022-09-12T03:09:01.488Z,11.12
2022-09-12T03:10:12.307Z,11.22
2022-09-12T03:11:34.275Z,11.19
2022-09-12T03:12:55.499Z,11.04
2022-09-12T03:14:31.799Z,10.73
2022-09-12T03:15:41.630Z,10.68
2022-09-12T03:16:54.327Z,10.73
2022-09-12T03:17:56.747Z,10.64
2022-09-12T03:19:06.042Z,10.62
2022-09-12T03:20:19.848Z,10.55
2022-09-12T03:21:44.767Z,10.54
2022-09-12T03:22:56.621Z,10.38
2022-09-12T03:24:05.157Z,10.68
2022-09-12T03:25:21.522Z,10.63
2022-09-12T03:26:44.692Z,10.76
2022-09-12T03:27:47.002Z,10.85
2022-09-12T03:28:45.465Z,10.82
2022-09-12T03:29:44.718Z,10.70
2022-09-12T03:30:43.808Z,10.65
2022-09-12T03:31:50.388Z,10.52
2022-09-12T03:32:50.235Z,10.44
2022-09-12T03:33:46.833Z,10.47
2022-09-12T03:34:43.456Z,10.44
2022-09-12T03:35:40.234Z,10.35
2022-09-12T03:36:36.794Z,10.38
2022-09-12T03:37:33.553Z,10.40
2022-09-12T03:38:30.163Z,10.47
2022-09-12T03:39:27.091Z,10.39
2022-09-12T03:40:23.691Z,10.52
2022-09-12T03:41:20.953Z,10.61
2022-09-12T03:42:17.511Z,10.62
2022-09-12T03:43:14.086Z,10.49
2022-09-12T03:44:10.722Z,10.49
2022-09-12T03:45:08.847Z,10.45
2022-09-12T03:46:05.770Z,10.76
2022-09-12T03:47:02.426Z,10.47
2022-09-12T03:47:59.813Z,10.57
2022-09-12T03:48:56.568Z,10.58
2022-09-12T03:49:53.216Z,10.62
2022-09-12T03:50:49.781Z,10.67
2022-09-12T03:51:46.416Z,10.49
2022-09-12T03:52:43.009Z,10.62
2022-09-12T03:53:39.618Z,10.63
2022-09-12T03:54:36.407Z,10.69
2022-09-12T03:55:32.996Z,10.41
2022-09-12T03:56:30.303Z,10.82
2022-09-12T03:57:26.945Z,11.05
2022-09-12T03:58:24.291Z,11.13
2022-09-12T03:59:20.889Z,10.94
2022-09-12T04:00:19.876Z,10.83
2022-09-12T04:01:19.033Z,11.03
2022-09-12T04:02:15.774Z,10.85
2022-09-12T04:03:12.435Z,10.67
2022-09-12T04:04:11.800Z,10.53
2022-09-12T04:05:08.712Z,10.42
2022-09-12T04:06:05.712Z,10.42
2022-09-12T04:07:02.392Z,10.24
2022-09-12T04:07:59.038Z,10.27
2022-09-12T04:08:55.740Z,10.29
2022-09-12T04:09:53.288Z,10.29
2022-09-12T04:10:49.849Z,10.28
2022-09-12T04:11:46.535Z,10.14
2022-09-12T04:12:43.386Z,10.22
2022-09-12T04:13:41.640Z,10.33
2022-09-12T04:14:38.629Z,10.64
2022-09-12T04:15:35.187Z,10.68
2022-09-12T04:16:32.498Z,10.72
2022-09-12T04:17:29.082Z,10.62
2022-09-12T04:18:26.174Z,10.78
2022-09-12T04:19:23.610Z,10.61
2022-09-12T04:20:20.261Z,10.53
2022-09-12T04:21:19.741Z,10.59
2022-09-12T04:22:16.335Z,10.52
2022-09-12T04:23:12.913Z,10.52
2022-09-12T04:24:09.590Z,10.54
2022-09-12T04:25:07.287Z,10.39
2022-09-12T04:26:06.587Z,10.14
2022-09-12T04:27:07.586Z,10.02
2022-09-12T04:28:04.650Z,10.17
2022-09-12T04:29:01.236Z,10.06
2022-09-12T04:29:58.275Z,9.97
2022-09-12T04:30:55.748Z,9.97
2022-09-12T04:31:52.332Z,10.16
2022-09-12T04:32:48.886Z,10.33
2022-09-12T04:33:45.753Z,10.08
2022-09-12T04:34:42.324Z,10.01
2022-09-12T04:35:38.910Z,10.06
2022-09-12T04:36:35.692Z,9.96
2022-09-12T04:37:32.250Z,10.07
2022-09-12T04:38:29.077Z,10.12
2022-09-12T04:39:25.763Z,10.11
2022-09-12T04:40:22.601Z,10.21
2022-09-12T04:41:24.837Z,10.31
2022-09-12T04:42:21.432Z,10.27
2022-09-12T04:43:18.008Z,10.28
2022-09-12T04:44:15.086Z,10.34
2022-09-12T04:45:13.003Z,10.26
2022-09-12T04:46:11.681Z,10.34
2022-09-12T04:47:08.704Z,10.44
2022-09-12T04:48:05.372Z,10.47
2022-09-12T04:49:02.309Z,10.52
2022-09-12T04:49:59.029Z,10.60
2022-09-12T04:50:55.592Z,10.66
2022-09-12T04:51:54.977Z,10.51
2022-09-12T04:52:52.845Z,10.46
2022-09-12T04:53:52.069Z,10.67
2022-09-12T04:54:48.616Z,10.68
2022-09-12T04:55:45.244Z,10.73
2022-09-12T04:56:44.883Z,10.66
2022-09-12T04:57:41.495Z,10.73
2022-09-12T04:58:38.765Z,10.56
2022-09-12T04:59:35.761Z,10.54
2022-09-12T05:00:33.224Z,10.48
2022-09-12T05:01:30.378Z,10.86
2022-09-12T05:02:27.432Z,10.87
2022-09-12T05:03:24.050Z,11.04
2022-09-12T05:04:21.525Z,10.78
2022-09-12T05:05:18.214Z,10.82
2022-09-12T05:06:20.852Z,10.72
2022-09-12T05:07:17.437Z,10.70
2022-09-12T05:08:14.021Z,10.71
2022-09-12T05:09:12.588Z,10.65
2022-09-12T05:10:10.141Z,10.71
2022-09-12T05:11:22.713Z,10.75
2022-09-12T05:12:21.310Z,11.04
2022-09-12T05:13:17.966Z,11.27
2022-09-12T05:14:14.535Z,11.43
2022-09-12T05:15:11.685Z,11.70
2022-09-12T05:16:10.625Z,11.92
2022-09-12T05:17:08.555Z,12.08
2022-09-12T05:18:05.224Z,12.12
2022-09-12T05:19:01.819Z,12.29
2022-09-12T05:19:58.549Z,12.36
2022-09-12T05:20:56.074Z,12.55
2022-09-12T05:21:52.636Z,12.74
2022-09-12T05:22:49.174Z,12.82
2022-09-12T05:23:47.763Z,12.85
2022-09-12T05:24:49.880Z,12.91
2022-09-12T05:25:52.510Z,12.87
2022-09-12T05:26:49.065Z,12.85
2022-09-12T05:27:50.382Z,12.83
2022-09-12T05:28:49.405Z,12.85
2022-09-12T05:29:45.999Z,12.98
2022-09-12T05:30:42.645Z,13.16
2022-09-12T05:31:39.476Z,13.03
2022-09-12T05:32:36.149Z,13.06
2022-09-12T05:33:34.519Z,13.16
2022-09-12T05:34:31.196Z,13.28
2022-09-12T05:35:27.761Z,13.37
2022-09-12T05:36:27.029Z,13.39
2022-09-12T05:37:23.906Z,13.50
2022-09-12T05:38:20.507Z,13.54
2022-09-12T05:39:18.591Z,13.65
2022-09-12T05:40:17.808Z,13.62
2022-09-12T05:41:24.710Z,13.51
2022-09-12T05:42:21.900Z,13.46
2022-09-12T05:43:20.348Z,13.40
2022-09-12T05:44:17.701Z,13.44
2022-09-12T05:45:14.934Z,13.48
2022-09-12T05:46:14.870Z,13.51
2022-09-12T05:47:12.464Z,13.64
2022-09-12T05:48:09.078Z,13.85
2022-09-12T05:49:08.131Z,13.94
2022-09-12T05:50:10.762Z,13.99
2022-09-12T05:51:10.510Z,13.89
2022-09-12T05:52:07.733Z,14.13
2022-09-12T05:53:04.461Z,14.02
2022-09-12T05:54:03.458Z,14.20
2022-09-12T05:55:00.152Z,13.98
2022-09-12T05:56:14.164Z,13.83
2022-09-12T05:57:10.828Z,13.89
2022-09-12T05:58:07.482Z,14.02
2022-09-12T05:59:06.712Z,13.92
2022-09-12T06:00:05.873Z,14.06
2022-09-12T06:01:08.092Z,13.84
2022-09-12T06:02:04.760Z,13.81
2022-09-12T06:03:01.540Z,14.08
2022-09-12T06:04:03.280Z,14.34
2022-09-12T06:04:59.870Z,14.22
2022-09-12T06:05:56.463Z,13.85
2022-09-12T06:06:53.087Z,13.79
2022-09-12T06:07:49.649Z,13.90
2022-09-12T06:08:48.673Z,13.87
2022-09-12T06:09:45.220Z,14.26
2022-09-12T06:10:41.797Z,14.01
2022-09-12T06:11:42.399Z,13.85
2022-09-12T06:12:39.149Z,13.74
2022-09-12T06:13:37.739Z,13.52
2022-09-12T06:14:34.599Z,13.73
2022-09-12T06:15:31.175Z,14.02
2022-09-12T06:16:30.122Z,13.95
2022-09-12T06:17:26.784Z,13.84
2022-09-12T06:18:23.436Z,14.02
2022-09-12T06:19:22.341Z,13.87
2022-09-12T06:20:20.288Z,14.01
2022-09-12T06:21:16.892Z,14.49
2022-09-12T06:22:13.984Z,14.47
2022-09-12T06:23:10.593Z,14.47
2022-09-12T06:24:10.257Z,13.75
2022-09-12T06:25:07.361Z,13.41
2022-09-12T06:26:05.265Z,13.48
2022-09-12T06:27:02.548Z,13.94
2022-09-12T06:27:59.203Z,14.34
2022-09-12T06:28:57.725Z,14.36
2022-09-12T06:29:54.402Z,14.16
2022-09-12T06:30:51.154Z,14.14
2022-09-12T06:31:47.829Z,14.11
2022-09-12T06:32:44.647Z,14.06
2022-09-12T06:33:44.312Z,14.26
2022-09-12T06:34:40.910Z,14.00
2022-09-12T06:35:38.605Z,14.26
2022-09-12T06:36:42.288Z,14.77
2022-09-12T06:37:38.880Z,14.77
2022-09-12T06:38:35.588Z,14.68
2022-09-12T06:39:32.619Z,14.86
2022-09-12T06:40:29.847Z,14.67
2022-09-12T06:41:27.488Z,14.86
2022-09-12T06:42:24.860Z,14.90
2022-09-12T06:43:21.493Z,15.16
2022-09-12T06:44:22.404Z,15.34
2022-09-12T06:45:20.056Z,14.77
2022-09-12T06:46:16.824Z,14.37
2022-09-12T06:47:13.534Z,13.86
2022-09-12T06:48:10.131Z,14.35
2022-09-12T06:49:08.201Z,14.58
2022-09-12T06:50:05.702Z,14.19
2022-09-12T06:51:07.276Z,14.39
2022-09-12T06:52:03.987Z,14.51
2022-09-12T06:53:00.581Z,14.52
2022-09-12T06:53:58.152Z,14.64
2022-09-12T06:54:54.787Z,14.76
2022-09-12T06:56:01.688Z,15.06
2022-09-12T06:56:58.251Z,14.90
2022-09-12T06:57:55.485Z,14.80
2022-09-12T06:58:53.679Z,15.09
2022-09-12T06:59:50.806Z,15.22
2022-09-12T07:00:47.427Z,15.01
2022-09-12T07:01:44.355Z,15.18
2022-09-12T07:02:41.150Z,15.32
2022-09-12T07:03:39.173Z,15.38
2022-09-12T07:04:37.170Z,15.15
2022-09-12T07:05:34.141Z,15.17
2022-09-12T07:06:37.045Z,15.44
2022-09-12T07:07:35.877Z,15.51
2022-09-12T07:08:34.170Z,15.58
2022-09-12T07:09:30.943Z,15.63
2022-09-12T07:10:27.613Z,15.99
2022-09-12T07:11:26.693Z,16.26
2022-09-12T07:12:23.302Z,16.40
2022-09-12T07:13:19.960Z,16.31
2022-09-12T07:14:16.896Z,16.33
2022-09-12T07:15:13.624Z,16.52
2022-09-12T07:16:13.820Z,16.36
2022-09-12T07:17:12.600Z,16.81
2022-09-12T07:18:10.636Z,16.85
2022-09-12T07:19:08.756Z,16.53
2022-09-12T07:20:05.866Z,17.01
2022-09-12T07:21:02.990Z,17.08
2022-09-12T07:21:59.551Z,16.93
2022-09-12T07:22:56.235Z,16.53
2022-09-12T07:23:55.322Z,16.83
2022-09-12T07:24:53.491Z,17.03
2022-09-12T07:25:57.633Z,16.99
2022-09-12T07:26:54.643Z,16.38
2022-09-12T07:27:53.108Z,16.40
2022-09-12T07:28:54.656Z,16.88
2022-09-12T07:29:51.274Z,17.00
2022-09-12T07:30:47.943Z,16.96
2022-09-12T07:31:45.330Z,16.09
2022-09-12T07:32:41.967Z,16.91
2022-09-12T07:33:40.284Z,17.44
2022-09-12T07:34:37.305Z,17.61
2022-09-12T07:35:34.325Z,17.70
2022-09-12T07:36:31.091Z,17.24
2022-09-12T07:37:31.228Z,17.25
2022-09-12T07:38:27.870Z,17.22
2022-09-12T07:39:24.685Z,17.21
2022-09-12T07:40:21.905Z,17.19
2022-09-12T07:41:24.693Z,17.50
2022-09-12T07:42:21.311Z,17.59
2022-09-12T07:43:17.987Z,17.36
2022-09-12T07:44:14.793Z,17.30
2022-09-12T07:45:11.412Z,17.67
2022-09-12T07:46:09.343Z,17.36
2022-09-12T07:47:06.432Z,17.15
2022-09-12T07:48:04.073Z,17.24
2022-09-12T07:49:01.568Z,16.89
2022-09-12T07:49:58.615Z,16.85
2022-09-12T07:51:04.447Z,16.71
2022-09-12T07:52:01.239Z,16.56
2022-09-12T07:52:57.897Z,16.39
2022-09-12T07:53:56.439Z,16.96
2022-09-12T07:54:53.146Z,17.22
2022-09-12T07:55:56.784Z,17.14
2022-09-12T07:56:53.554Z,17.05
2022-09-12T07:57:51.171Z,17.50
2022-09-12T07:58:48.603Z,17.30
2022-09-12T07:59:53.379Z,17.38
2022-09-12T08:00:50.661Z,17.59
2022-09-12T08:01:47.773Z,17.58
2022-09-12T08:02:44.794Z,17.57
2022-09-12T08:03:43.281Z,17.19
2022-09-12T08:04:42.192Z,17.19
2022-09-12T08:05:38.883Z,17.09
2022-09-12T08:06:37.031Z,17.14
2022-09-12T08:07:34.215Z,16.99
2022-09-12T08:08:31.234Z,16.21
2022-09-12T08:09:27.960Z,16.02
2022-09-12T08:10:24.809Z,16.41
2022-09-12T08:11:23.086Z,16.65
2022-09-12T08:12:20.521Z,16.22
2022-09-12T08:13:17.294Z,15.95
2022-09-12T08:14:13.901Z,16.08
2022-09-12T08:15:10.817Z,16.43
2022-09-12T08:16:12.330Z,16.88
2022-09-12T08:17:09.088Z,16.91
2022-09-12T08:18:05.860Z,16.67
2022-09-12T08:19:03.814Z,16.79
2022-09-12T08:20:00.560Z,16.76
2022-09-12T08:21:24.844Z,16.84
2022-09-12T08:22:22.093Z,16.78
2022-09-12T08:23:21.366Z,16.76
2022-09-12T08:24:18.005Z,16.47
2022-09-12T08:25:15.198Z,16.73
2022-09-12T08:26:12.678Z,17.09
2022-09-12T08:27:09.444Z,16.93
2022-09-12T08:28:06.337Z,16.91
2022-09-12T08:29:04.303Z,17.06
2022-09-12T08:30:00.860Z,17.05
2022-09-12T08:31:05.578Z,17.09
2022-09-12T08:32:03.007Z,16.81
2022-09-12T08:32:59.597Z,16.44
2022-09-12T08:33:57.787Z,16.64
2022-09-12T08:34:54.365Z,16.28
2022-09-12T08:35:50.927Z,16.96
2022-09-12T08:36:48.005Z,17.11
2022-09-12T08:37:44.581Z,17.56
2022-09-12T08:38:44.023Z,17.75
2022-09-12T08:39:40.742Z,16.66
2022-09-12T08:40:53.273Z,16.84
2022-09-12T08:41:59.172Z,17.27
2022-09-12T08:43:31.290Z,17.31
2022-09-12T08:44:53.486Z,17.34
2022-09-12T08:45:59.216Z,17.19
2022-09-12T08:47:11.053Z,17.16
2022-09-12T08:48:10.190Z,17.02
2022-09-12T08:49:12.675Z,17.50
2022-09-12T08:50:12.176Z,17.56
2022-09-12T08:51:15.139Z,17.58
2022-09-12T08:52:17.350Z,17.68
2022-09-12T08:53:20.336Z,17.57
2022-09-12T08:54:25.296Z,17.48
2022-09-12T08:55:38.233Z,17.11
2022-09-12T08:56:37.687Z,16.75
2022-09-12T08:57:34.482Z,16.94
2022-09-12T08:58:39.562Z,17.10
2022-09-12T08:59:39.862Z,17.18
2022-09-12T09:01:07.408Z,17.00
2022-09-12T09:02:14.873Z,17.38
2022-09-12T09:03:33.456Z,17.56
2022-09-12T09:04:51.918Z,17.57
2022-09-12T09:06:03.105Z,17.81
2022-09-12T09:07:05.964Z,16.71
2022-09-12T09:08:08.963Z,16.77
2022-09-12T09:09:05.491Z,17.41
2022-09-12T09:10:20.475Z,17.26
2022-09-12T09:11:55.117Z,17.03
2022-09-12T09:13:35.653Z,16.51
2022-09-12T09:14:50.416Z,16.87
2022-09-12T09:16:05.882Z,16.84
2022-09-12T09:17:03.345Z,16.49
2022-09-12T09:18:06.450Z,16.60
2022-09-12T09:19:10.873Z,16.73
2022-09-12T09:20:41.310Z,17.18
2022-09-12T09:21:45.132Z,17.40
2022-09-12T09:23:06.429Z,17.60
2022-09-12T09:24:10.331Z,17.65
2022-09-12T09:25:22.117Z,17.92
2022-09-12T09:26:40.205Z,17.62
2022-09-12T09:27:46.515Z,17.69
2022-09-12T09:28:49.997Z,17.70
2022-09-12T09:29:51.223Z,17.91
2022-09-12T09:30:47.869Z,18.03
2022-09-12T09:31:49.979Z,17.63
2022-09-12T09:32:51.039Z,17.88
2022-09-12T09:33:55.497Z,17.75
2022-09-12T09:34:52.372Z,18.11
2022-09-12T09:35:59.227Z,17.71
2022-09-12T09:37:03.983Z,17.86
2022-09-12T09:38:06.776Z,18.06
2022-09-12T09:39:24.650Z,18.15
2022-09-12T09:40:31.862Z,18.27
2022-09-12T09:41:43.839Z,18.02
2022-09-12T09:42:54.017Z,18.84
2022-09-12T09:43:50.753Z,18.69
2022-09-12T09:44:49.134Z,18.57
2022-09-12T09:45:47.874Z,18.47
2022-09-12T09:46:44.964Z,18.47
2022-09-12T09:47:43.221Z,18.13
2022-09-12T09:48:48.808Z,18.10
2022-09-12T09:49:45.788Z,18.22
2022-09-12T09:50:43.861Z,18.22
2022-09-12T09:51:42.786Z,17.83
2022-09-12T09:52:40.068Z,18.23
2022-09-12T09:53:53.365Z,18.15
2022-09-12T09:54:57.828Z,17.63
2022-09-12T09:55:56.795Z,17.81
2022-09-12T09:56:53.415Z,17.84
2022-09-12T09:57:52.068Z,17.50
2022-09-12T09:58:48.801Z,18.09
2022-09-12T09:59:45.378Z,18.11
2022-09-12T10:00:42.073Z,18.16
2022-09-12T10:01:51.538Z,18.59
2022-09-12T10:03:13.572Z,18.47
2022-09-12T10:04:23.488Z,18.62
2022-09-12T10:05:20.109Z,18.51
2022-09-12T10:06:25.605Z,18.46
2022-09-12T10:07:23.196Z,18.36
2022-09-12T10:08:21.350Z,18.23
2022-09-12T10:09:19.708Z,18.57
2022-09-12T10:10:19.079Z,18.55
2022-09-12T10:11:15.602Z,18.45
2022-09-12T10:12:30.832Z,18.24
2022-09-12T10:13:43.002Z,17.99
2022-09-12T10:14:41.732Z,18.35
2022-09-12T10:15:38.452Z,18.49
2022-09-12T10:16:52.712Z,18.59
2022-09-12T10:17:50.997Z,18.59
2022-09-12T10:18:48.549Z,18.57
2022-09-12T10:19:52.645Z,18.43
2022-09-12T10:20:57.196Z,18.44
2022-09-12T10:21:57.064Z,18.85
2022-09-12T10:22:53.840Z,19.26
2022-09-12T10:24:04.017Z,19.52
2022-09-12T10:25:01.436Z,19.43
2022-09-12T10:26:01.546Z,19.49
2022-09-12T10:27:05.944Z,19.23
2022-09-12T10:28:02.949Z,18.90
2022-09-12T10:29:06.841Z,18.81
2022-09-12T10:30:17.711Z,18.83
2022-09-12T10:31:17.212Z,18.59
2022-09-12T10:32:30.507Z,18.74
2022-09-12T10:33:28.361Z,18.64
2022-09-12T10:34:25.569Z,18.73
2022-09-12T10:35:31.062Z,18.83
2022-09-12T10:36:37.311Z,18.77
2022-09-12T10:37:37.381Z,19.09
2022-09-12T10:38:34.540Z,18.93
2022-09-12T10:39:32.773Z,19.16
2022-09-12T10:40:34.555Z,18.76
2022-09-12T10:41:39.992Z,18.73
2022-09-12T10:42:53.209Z,18.82
2022-09-12T10:43:50.595Z,18.98
2022-09-12T10:44:54.323Z,19.09
2022-09-12T10:45:51.157Z,19.38
2022-09-12T10:46:47.848Z,19.81
2022-09-12T10:47:44.478Z,19.77
2022-09-12T10:48:41.827Z,19.49
2022-09-12T10:49:40.389Z,19.12
2022-09-12T10:50:44.095Z,19.30
2022-09-12T10:51:40.751Z,20.20
2022-09-12T10:52:37.316Z,20.39
2022-09-12T10:53:43.628Z,20.39
2022-09-12T10:54:40.744Z,20.27
2022-09-12T10:55:37.366Z,19.98
2022-09-12T10:56:39.512Z,20.22
2022-09-12T10:57:47.821Z,20.56
2022-09-12T10:58:50.256Z,20.01
2022-09-12T10:59:52.731Z,19.67
2022-09-12T11:00:59.652Z,19.62
2022-09-12T11:02:01.816Z,19.30
2022-09-12T11:03:43.353Z,18.99
2022-09-12T11:05:00.767Z,18.71
2022-09-12T11:06:02.038Z,19.29
2022-09-12T11:07:19.640Z,19.05
2022-09-12T11:08:34.716Z,19.68
2022-09-12T11:09:56.024Z,19.79
2022-09-12T11:11:05.698Z,18.84
2022-09-12T11:12:17.245Z,19.23
2022-09-12T11:13:22.788Z,18.91
2022-09-12T11:14:44.041Z,18.99
2022-09-12T11:15:49.156Z,19.12
2022-09-12T11:16:57.861Z,19.14
2022-09-12T11:18:05.380Z,19.04
2022-09-12T11:19:35.923Z,18.97
2022-09-12T11:20:58.723Z,18.97
2022-09-12T11:22:07.363Z,18.32
2022-09-12T11:23:24.577Z,18.45
2022-09-12T11:24:21.269Z,18.76
2022-09-12T11:25:41.149Z,18.46
2022-09-12T11:27:10.025Z,18.56
2022-09-12T11:28:34.584Z,18.84
2022-09-12T11:29:59.254Z,18.68
2022-09-12T11:31:10.903Z,18.71
2022-09-12T11:32:22.662Z,18.78
2022-09-12T11:33:25.471Z,19.00
2022-09-12T11:34:49.753Z,19.09
2022-09-12T11:35:55.155Z,19.20
2022-09-12T11:37:17.951Z,18.95
2022-09-12T11:38:51.438Z,19.03
2022-09-12T11:39:55.693Z,19.28
2022-09-12T11:41:06.536Z,18.91
2022-09-12T11:42:06.282Z,18.79
2022-09-12T11:43:11.997Z,19.01
2022-09-12T11:44:19.125Z,18.99
2022-09-12T11:45:46.058Z,19.06
2022-09-12T11:46:46.719Z,19.43
2022-09-12T11:47:50.245Z,19.50
2022-09-12T11:49:15.529Z,19.19
2022-09-12T11:50:38.417Z,19.73
2022-09-12T11:51:42.660Z,19.35
2022-09-12T11:52:40.673Z,19.91
2022-09-12T11:53:40.823Z,19.16
2022-09-12T11:54:59.995Z,19.22
2022-09-12T11:56:08.745Z,19.36
2022-09-12T11:57:20.676Z,19.29
2022-09-12T11:58:21.080Z,19.42
2022-09-12T11:59:31.223Z,19.61
2022-09-12T12:00:34.207Z,19.37
2022-09-12T12:01:48.500Z,19.07
2022-09-12T12:03:00.396Z,19.11
2022-09-12T12:03:58.670Z,19.31
2022-09-12T12:05:17.070Z,19.00
2022-09-12T12:06:21.371Z,19.38
2022-09-12T12:07:18.069Z,19.07
2022-09-12T12:08:14.918Z,19.33
2022-09-12T12:09:13.435Z,19.21
2022-09-12T12:10:36.971Z,19.12
2022-09-12T12:11:38.443Z,19.77
2022-09-12T12:12:35.920Z,19.36
2022-09-12T12:13:32.508Z,19.32
2022-09-12T12:14:51.064Z,19.40
2022-09-12T12:15:51.398Z,19.09
2022-09-12T12:16:49.607Z,19.57
2022-09-12T12:18:03.588Z,20.17
2022-09-12T12:19:02.063Z,20.15
2022-09-12T12:20:07.633Z,19.59
2022-09-12T12:21:43.972Z,20.42
2022-09-12T12:22:52.408Z,21.48
2022-09-12T12:24:10.135Z,22.03
2022-09-12T12:25:12.884Z,21.65
2022-09-12T12:26:58.567Z,20.73
2022-09-12T12:27:59.201Z,20.63
2022-09-12T12:28:58.866Z,20.41
2022-09-12T12:29:55.520Z,21.30
2022-09-12T12:31:00.122Z,21.60
2022-09-12T12:31:59.413Z,21.17
2022-09-12T12:33:10.911Z,21.19
2022-09-12T12:34:46.805Z,21.62
2022-09-12T12:36:01.699Z,20.66
2022-09-12T12:37:00.713Z,20.66
2022-09-12T12:38:00.079Z,20.87
2022-09-12T12:38:56.741Z,20.21
2022-09-12T12:40:04.638Z,20.09
2022-09-12T12:41:19.465Z,20.11
2022-09-12T12:42:34.567Z,20.78
2022-09-12T12:43:32.214Z,19.98
2022-09-12T12:44:44.022Z,20.38
2022-09-12T12:45:40.584Z,20.50
2022-09-12T12:46:38.587Z,21.01
2022-09-12T12:47:38.306Z,20.42
2022-09-12T12:48:59.042Z,20.72
2022-09-12T12:50:00.378Z,21.02
2022-09-12T12:51:36.181Z,21.13
2022-09-12T12:52:58.837Z,21.31
2022-09-12T12:53:55.857Z,19.85
2022-09-12T12:54:56.412Z,19.66
2022-09-12T12:55:55.907Z,20.65
2022-09-12T12:57:02.551Z,20.55
2022-09-12T12:58:01.210Z,20.39
2022-09-12T12:59:00.802Z,20.60
2022-09-12T13:00:25.621Z,20.84
2022-09-12T13:01:23.721Z,20.42
2022-09-12T13:02:35.200Z,20.39
2022-09-12T13:03:34.165Z,20.32
2022-09-12T13:04:32.646Z,20.28
2022-09-12T13:05:38.226Z,20.31
2022-09-12T13:06:41.460Z,20.49
2022-09-12T13:07:40.089Z,20.65
2022-09-12T13:08:43.703Z,21.01
2022-09-12T13:09:49.562Z,21.61
2022-09-12T13:10:57.999Z,21.62
2022-09-12T13:13:05.233Z,21.07
2022-09-12T13:14:09.488Z,21.31
2022-09-12T13:15:47.149Z,21.73
2022-09-12T13:17:00.031Z,21.16
2022-09-12T13:18:03.170Z,21.41
2022-09-12T13:19:33.492Z,20.94
2022-09-12T13:20:33.572Z,20.92
2022-09-12T13:21:30.188Z,21.45
2022-09-12T13:22:46.557Z,21.34
2022-09-12T13:23:44.284Z,20.95
2022-09-12T13:24:47.115Z,21.46
2022-09-12T13:25:53.001Z,21.08
2022-09-12T13:26:49.634Z,21.08
2022-09-12T13:28:04.432Z,22.27
2022-09-12T13:29:15.094Z,21.27